createdAt,value
2019-05-15T00:02:10.609Z,9.00
2019-05-15T00:04:41.571Z,8.68
2019-05-15T00:07:18.203Z,8.55
2019-05-15T00:09:52.462Z,8.73
2019-05-15T00:15:00.438Z,7.85
2019-05-15T00:17:34.166Z,8.20
2019-05-15T00:20:09.911Z,8.30
2019-05-15T00:22:43.815Z,7.95
2019-05-15T00:25:18.836Z,8.90
2019-05-15T00:27:52.962Z,8.43
2019-05-15T00:30:28.886Z,8.43
2019-05-15T00:33:02.610Z,8.68
2019-05-15T00:35:38.958Z,7.95
2019-05-15T00:38:12.425Z,7.90
2019-05-15T00:40:46.382Z,8.70
2019-05-15T00:43:20.935Z,8.33
2019-05-15T00:45:55.641Z,8.25
2019-05-15T00:48:29.559Z,7.72
2019-05-15T00:51:04.924Z,8.60
2019-05-15T00:53:38.980Z,8.80
2019-05-15T00:56:14.341Z,10.35
2019-05-15T00:58:48.248Z,9.05
2019-05-15T01:01:22.381Z,9.15
2019-05-15T01:03:58.440Z,9.15
2019-05-15T01:06:32.119Z,9.20
2019-05-15T01:09:08.361Z,8.70
2019-05-15T01:11:42.465Z,8.63
2019-05-15T01:14:18.610Z,9.28
2019-05-15T01:16:54.317Z,9.48
2019-05-15T01:19:28.740Z,8.58
2019-05-15T01:22:03.885Z,9.58
2019-05-15T01:24:38.905Z,8.80
2019-05-15T01:27:12.737Z,9.58
2019-05-15T01:29:49.155Z,8.90
2019-05-15T01:32:22.403Z,8.18
2019-05-15T01:34:58.047Z,8.40
2019-05-15T01:37:31.890Z,8.58
2019-05-15T01:40:06.039Z,8.65
2019-05-15T01:42:40.663Z,8.10
2019-05-15T01:45:14.473Z,8.05
2019-05-15T01:47:48.505Z,8.23
2019-05-15T01:50:22.294Z,8.27
2019-05-15T01:52:58.461Z,8.80
2019-05-15T01:55:32.865Z,8.18
2019-05-15T01:58:08.835Z,7.97
2019-05-15T02:00:41.806Z,7.83
2019-05-15T02:03:15.197Z,8.05
2019-05-15T02:05:49.352Z,7.90
2019-05-15T02:08:23.248Z,8.08
2019-05-15T02:10:58.818Z,8.68
2019-05-15T02:13:32.106Z,8.73
2019-05-15T02:16:08.191Z,8.83
2019-05-15T02:18:42.267Z,8.35
2019-05-15T02:21:18.103Z,8.75
2019-05-15T02:23:52.149Z,8.75
2019-05-15T02:26:28.155Z,8.05
2019-05-15T02:29:02.160Z,8.80
2019-05-15T02:31:38.888Z,8.88
2019-05-15T02:34:13.603Z,8.90
2019-05-15T02:36:49.232Z,8.55
2019-05-15T02:39:24.085Z,8.70
2019-05-15T02:41:59.524Z,9.30
2019-05-15T02:44:33.872Z,8.18
2019-05-15T02:47:09.189Z,8.45
2019-05-15T02:49:44.402Z,8.88
2019-05-15T02:52:19.951Z,8.25
2019-05-15T02:55:00.006Z,8.63
2019-05-15T02:57:32.763Z,8.03
2019-05-15T03:02:42.608Z,8.98
2019-05-15T03:05:19.364Z,9.53
2019-05-15T03:07:53.498Z,9.30
2019-05-15T03:10:29.647Z,9.40
2019-05-15T03:13:09.347Z,8.53
2019-05-15T03:15:42.645Z,8.48
2019-05-15T03:18:19.157Z,9.43
2019-05-15T03:20:53.235Z,8.85
2019-05-15T03:23:29.547Z,9.03
2019-05-15T03:26:05.066Z,8.13
2019-05-15T03:28:39.744Z,7.78
2019-05-15T03:31:32.920Z,9.38
2019-05-15T03:33:53.695Z,8.30
2019-05-15T03:36:24.812Z,8.43
2019-05-15T03:38:58.882Z,8.38
2019-05-15T03:41:32.711Z,7.42
2019-05-15T03:44:09.219Z,8.55
2019-05-15T03:46:42.211Z,9.00
2019-05-15T03:49:16.038Z,8.08
2019-05-15T03:51:50.429Z,9.13
2019-05-15T03:54:23.963Z,9.27
2019-05-15T03:56:58.451Z,10.13
2019-05-15T03:59:33.198Z,8.63
2019-05-15T04:04:41.114Z,9.05
2019-05-15T04:07:18.603Z,9.45
2019-05-15T04:09:51.251Z,10.13
2019-05-15T04:12:28.786Z,10.20
2019-05-15T04:15:02.184Z,10.23
2019-05-15T04:17:39.598Z,10.00
2019-05-15T04:20:12.696Z,12.43
2019-05-15T04:22:49.219Z,10.38
2019-05-15T04:25:24.767Z,9.45
2019-05-15T04:28:00.651Z,9.43
2019-05-15T04:30:39.512Z,8.60
2019-05-15T04:33:14.373Z,9.68
2019-05-15T04:35:49.901Z,9.40
2019-05-15T04:38:24.842Z,9.33
2019-05-15T04:40:59.035Z,10.00
2019-05-15T04:43:41.364Z,9.48
2019-05-15T04:46:10.444Z,9.28
2019-05-15T04:48:44.167Z,9.50
2019-05-15T04:51:19.032Z,10.03
2019-05-15T04:53:54.254Z,9.03
2019-05-15T04:56:29.324Z,10.05
2019-05-15T04:59:05.853Z,9.33
2019-05-15T05:01:40.489Z,10.45
2019-05-15T05:04:14.777Z,10.10
2019-05-15T05:06:49.451Z,10.00
2019-05-15T05:09:23.609Z,9.55
2019-05-15T05:11:58.247Z,9.90
2019-05-15T05:17:08.853Z,9.83
2019-05-15T05:19:41.749Z,10.65
2019-05-15T05:22:18.698Z,10.08
2019-05-15T05:24:54.399Z,9.88
2019-05-15T05:27:29.546Z,10.23
2019-05-15T05:30:03.582Z,9.85
2019-05-15T05:32:40.148Z,10.35
2019-05-15T05:35:14.450Z,10.00
2019-05-15T05:37:48.105Z,10.40
2019-05-15T05:40:22.212Z,10.23
2019-05-15T05:42:55.617Z,9.70
2019-05-15T05:45:30.827Z,10.78
2019-05-15T05:48:05.125Z,9.38
2019-05-15T05:50:44.298Z,8.70
2019-05-15T05:53:21.288Z,9.93
2019-05-15T05:55:57.660Z,9.90
2019-05-15T05:58:31.243Z,9.58
2019-05-15T06:01:04.974Z,8.95
2019-05-15T06:03:40.775Z,9.30
2019-05-15T06:06:18.436Z,9.85
2019-05-15T06:08:53.317Z,8.68
2019-05-15T06:11:27.786Z,8.85
2019-05-15T06:14:01.361Z,8.30
2019-05-15T06:16:38.562Z,8.58
2019-05-15T06:19:14.463Z,9.48
2019-05-15T06:21:56.703Z,9.45
2019-05-15T06:24:30.642Z,8.18
2019-05-15T06:27:08.727Z,8.75
2019-05-15T06:29:42.622Z,8.60
2019-05-15T06:32:19.342Z,8.18
2019-05-15T06:34:53.109Z,8.33
2019-05-15T06:37:28.666Z,8.73
2019-05-15T06:40:02.705Z,8.65
2019-05-15T06:42:39.371Z,8.98
2019-05-15T06:45:12.797Z,8.63
2019-05-15T06:47:48.235Z,8.35
2019-05-15T06:50:34.705Z,9.30
2019-05-15T06:53:10.766Z,9.18
2019-05-15T06:55:44.830Z,8.98
2019-05-15T06:58:20.646Z,9.15
2019-05-15T07:00:54.154Z,9.43
2019-05-15T07:03:29.355Z,8.90
2019-05-15T07:06:03.372Z,9.20
2019-05-15T07:08:38.289Z,8.85
2019-05-15T07:11:12.729Z,9.43
2019-05-15T07:13:48.623Z,9.88
2019-05-15T07:16:23.228Z,9.95
2019-05-15T07:21:29.563Z,9.58
2019-05-15T07:24:03.598Z,9.08
2019-05-15T07:26:39.128Z,8.73
2019-05-15T07:29:14.231Z,9.18
2019-05-15T07:31:48.957Z,9.65
2019-05-15T07:34:23.364Z,9.50
2019-05-15T07:36:59.109Z,9.65
2019-05-15T07:39:33.070Z,9.28
2019-05-15T07:42:08.616Z,9.35
2019-05-15T07:44:42.562Z,9.00
2019-05-15T07:47:18.916Z,8.63
2019-05-15T07:49:51.668Z,8.48
2019-05-15T07:52:25.590Z,8.55
2019-05-15T07:54:59.401Z,9.05
2019-05-15T07:57:33.127Z,8.88
2019-05-15T08:00:10.800Z,9.05
2019-05-15T08:02:47.847Z,9.55
2019-05-15T08:05:20.956Z,8.70
2019-05-15T08:07:55.431Z,8.73
2019-05-15T08:13:02.384Z,9.13
2019-05-15T08:15:38.115Z,8.98
2019-05-15T08:18:13.042Z,9.83
2019-05-15T08:20:48.938Z,10.08
2019-05-15T08:23:23.555Z,9.20
2019-05-15T08:25:57.992Z,9.40
2019-05-15T08:31:06.472Z,9.90
2019-05-15T08:33:39.091Z,10.60
2019-05-15T08:36:14.118Z,10.08
2019-05-15T08:38:48.604Z,10.63
2019-05-15T08:41:22.602Z,11.40
2019-05-15T08:43:57.930Z,11.03
2019-05-15T08:46:32.728Z,10.55
2019-05-15T08:49:09.146Z,10.98
2019-05-15T08:51:43.089Z,11.33
2019-05-15T08:54:18.584Z,10.80
2019-05-15T08:56:52.745Z,11.30
2019-05-15T08:59:29.278Z,10.50
2019-05-15T09:02:04.165Z,10.55
2019-05-15T09:04:38.705Z,10.82
2019-05-15T09:07:12.999Z,10.60
2019-05-15T09:09:48.743Z,10.43
2019-05-15T09:12:23.151Z,10.78
2019-05-15T09:14:58.079Z,10.75
2019-05-15T09:17:31.769Z,10.72
2019-05-15T09:20:07.979Z,10.68
2019-05-15T09:22:41.386Z,10.35
2019-05-15T09:25:15.285Z,11.43
2019-05-15T09:27:49.420Z,10.45
2019-05-15T09:30:23.854Z,10.55
2019-05-15T09:32:58.836Z,10.63
2019-05-15T09:38:08.532Z,11.38
2019-05-15T09:40:46.186Z,10.80
2019-05-15T09:43:18.151Z,10.08
2019-05-15T09:45:52.479Z,10.68
2019-05-15T09:48:28.418Z,12.45
2019-05-15T09:51:01.046Z,10.70
2019-05-15T09:53:35.501Z,10.70
2019-05-15T09:56:08.965Z,12.68
2019-05-15T09:58:43.089Z,12.05
2019-05-15T10:01:19.333Z,16.42
2019-05-15T10:03:53.069Z,11.48
2019-05-15T10:06:28.695Z,10.70
2019-05-15T10:09:02.457Z,10.05
2019-05-15T10:11:38.237Z,11.03
2019-05-15T10:14:11.272Z,10.95
2019-05-15T10:16:48.116Z,11.83
2019-05-15T10:19:22.762Z,10.63
2019-05-15T10:21:59.476Z,10.13
2019-05-15T10:24:32.787Z,11.12
2019-05-15T10:27:08.811Z,10.70
2019-05-15T10:29:41.834Z,11.20
2019-05-15T10:32:19.137Z,15.83
2019-05-15T10:34:53.084Z,11.80
2019-05-15T10:37:28.515Z,11.73
2019-05-15T10:40:03.592Z,11.22
2019-05-15T10:42:39.799Z,11.35
2019-05-15T10:45:14.366Z,11.50
2019-05-15T10:47:49.626Z,11.20
2019-05-15T10:50:23.998Z,11.88
2019-05-15T10:52:57.680Z,11.15
2019-05-15T10:55:31.977Z,18.15
2019-05-15T10:58:06.053Z,10.65
2019-05-15T11:00:40.133Z,10.48
2019-05-15T11:03:15.323Z,10.25
2019-05-15T11:05:49.729Z,11.22
2019-05-15T11:08:23.097Z,10.17
2019-05-15T11:10:58.516Z,10.68
2019-05-15T11:13:34.048Z,10.58
2019-05-15T11:16:08.955Z,10.63
2019-05-15T11:18:43.045Z,11.83
2019-05-15T11:21:18.994Z,10.45
2019-05-15T11:23:52.644Z,10.58
2019-05-15T11:26:33.151Z,10.63
2019-05-15T11:29:09.371Z,10.58
2019-05-15T11:31:42.889Z,9.58
2019-05-15T11:34:18.657Z,10.05
2019-05-15T11:36:59.104Z,10.50
2019-05-15T11:39:31.705Z,10.20
2019-05-15T11:42:08.721Z,9.98
2019-05-15T11:44:41.477Z,10.35
2019-05-15T11:47:15.353Z,10.13
2019-05-15T11:49:49.600Z,11.35
2019-05-15T11:52:23.953Z,10.43
2019-05-15T11:54:59.021Z,10.93
2019-05-15T11:57:42.331Z,10.63
2019-05-15T12:00:17.259Z,11.12
2019-05-15T12:02:48.042Z,10.85
2019-05-15T12:05:22.637Z,10.85
2019-05-15T12:07:57.866Z,11.28
2019-05-15T12:10:31.989Z,11.15
2019-05-15T12:13:09.943Z,10.50
2019-05-15T12:15:45.327Z,10.28
2019-05-15T12:18:20.621Z,10.25
2019-05-15T12:20:54.671Z,10.05
2019-05-15T12:23:29.316Z,10.38
2019-05-15T12:26:04.834Z,10.45
2019-05-15T12:28:40.514Z,11.08
2019-05-15T12:31:13.625Z,9.65
2019-05-15T12:33:48.969Z,10.72
2019-05-15T12:36:47.452Z,10.50
2019-05-15T12:38:58.915Z,10.55
2019-05-15T12:59:45.587Z,11.60
2019-05-15T13:02:20.730Z,12.58
2019-05-15T13:04:55.690Z,12.78
2019-05-15T13:07:29.243Z,15.03
2019-05-15T13:10:04.244Z,14.10
2019-05-15T13:15:13.014Z,11.78
2019-05-15T13:17:53.077Z,12.47
2019-05-15T13:20:23.793Z,12.20
2019-05-15T13:22:59.267Z,13.03
2019-05-15T13:25:33.108Z,12.37
2019-05-15T13:28:09.033Z,12.68
2019-05-15T13:30:42.842Z,13.70
2019-05-15T13:33:17.489Z,12.95
2019-05-15T13:38:24.490Z,13.08
2019-05-15T13:43:33.968Z,12.37
2019-05-15T13:46:10.677Z,12.25
2019-05-15T13:48:44.460Z,11.50
2019-05-15T13:51:18.232Z,12.55
2019-05-15T13:53:55.573Z,12.20
2019-05-15T13:56:31.846Z,11.95
2019-05-15T13:59:08.443Z,16.07
2019-05-15T14:01:45.132Z,13.55
2019-05-15T14:04:19.975Z,14.55
2019-05-15T14:06:55.091Z,12.65
2019-05-15T14:09:33.262Z,13.22
2019-05-15T14:12:13.287Z,14.28
2019-05-15T14:14:49.038Z,13.22
2019-05-15T14:17:25.259Z,12.88
2019-05-15T14:20:00.544Z,13.13
2019-05-15T14:22:38.653Z,13.78
2019-05-15T14:25:11.344Z,13.15
2019-05-15T14:27:48.385Z,12.45
2019-05-15T14:30:23.333Z,11.15
2019-05-15T14:33:00.128Z,12.53
2019-05-15T14:35:37.925Z,11.70
2019-05-15T14:38:15.336Z,11.35
2019-05-15T14:40:59.071Z,11.57
2019-05-15T14:43:35.214Z,11.97
2019-05-15T14:46:13.192Z,14.30
2019-05-15T14:48:54.076Z,14.05
2019-05-15T14:51:31.310Z,13.32
2019-05-15T14:54:09.087Z,12.78
2019-05-15T14:56:44.256Z,10.48
2019-05-15T15:02:18.789Z,11.20
2019-05-15T15:04:51.299Z,9.93
2019-05-15T15:07:28.428Z,10.40
2019-05-15T15:10:02.717Z,10.40
2019-05-15T15:12:39.150Z,9.90
2019-05-15T15:15:12.652Z,9.93
2019-05-15T15:17:49.327Z,9.60
2019-05-15T15:20:24.629Z,9.65
2019-05-15T15:22:59.087Z,9.38
2019-05-15T15:25:35.615Z,9.50
2019-05-15T15:28:18.880Z,10.15
2019-05-15T15:30:53.149Z,10.48
2019-05-15T15:33:28.832Z,10.43
2019-05-15T15:36:10.718Z,11.18
2019-05-15T15:38:48.401Z,11.43
2019-05-15T15:41:25.581Z,11.15
2019-05-15T15:44:02.409Z,10.80
2019-05-15T15:46:42.460Z,11.78
2019-05-15T15:49:22.035Z,13.40
2019-05-15T15:51:58.167Z,11.88
2019-05-15T15:54:34.760Z,10.78
2019-05-15T15:57:19.252Z,10.25
2019-05-15T15:59:55.766Z,9.68
2019-05-15T16:02:35.533Z,9.60
2019-05-15T16:05:12.233Z,8.98
2019-05-15T16:07:49.501Z,9.30
2019-05-15T16:10:24.918Z,8.73
2019-05-15T16:13:02.026Z,8.80
2019-05-15T16:15:38.245Z,9.48
2019-05-15T16:18:14.978Z,8.15
2019-05-15T16:20:48.743Z,9.15
2019-05-15T16:23:24.131Z,8.50
2019-05-15T16:26:01.973Z,7.85
2019-05-15T16:28:38.803Z,8.73
2019-05-15T16:31:18.452Z,7.72
2019-05-15T16:33:51.677Z,8.50
2019-05-15T16:36:29.277Z,7.85
2019-05-15T16:39:09.179Z,7.60
2019-05-15T16:41:44.963Z,8.55
2019-05-15T16:44:21.291Z,8.60
2019-05-15T16:46:55.804Z,7.78
2019-05-15T16:49:30.955Z,8.33
2019-05-15T16:52:08.978Z,7.85
2019-05-15T16:54:41.200Z,7.70
2019-05-15T16:57:18.337Z,8.25
2019-05-15T16:59:53.006Z,8.08
2019-05-15T17:02:28.249Z,7.62
2019-05-15T17:05:02.284Z,8.15
2019-05-15T17:07:39.665Z,7.53
2019-05-15T17:10:17.716Z,7.40
2019-05-15T17:12:51.725Z,8.38
2019-05-15T17:15:27.776Z,7.65
2019-05-15T17:18:02.355Z,7.67
2019-05-15T17:20:42.059Z,7.87
2019-05-15T17:23:16.121Z,7.60
2019-05-15T17:25:53.227Z,7.90
2019-05-15T17:28:28.821Z,7.22
2019-05-15T17:31:03.442Z,7.15
2019-05-15T17:33:38.087Z,7.50
2019-05-15T17:36:12.089Z,8.00
2019-05-15T17:38:48.560Z,7.75
2019-05-15T17:41:21.781Z,9.83
2019-05-15T17:43:57.958Z,10.10
2019-05-15T17:46:32.082Z,9.00
2019-05-15T17:49:14.319Z,8.98
2019-05-15T17:51:41.820Z,9.35
2019-05-15T17:54:18.213Z,8.60
2019-05-15T17:56:52.205Z,8.43
2019-05-15T17:59:28.486Z,8.78
2019-05-15T18:02:01.727Z,8.58
2019-05-15T18:04:35.576Z,8.30
2019-05-15T18:07:09.290Z,7.90
2019-05-15T18:09:51.502Z,8.05
2019-05-15T18:12:19.939Z,7.17
2019-05-15T18:14:54.021Z,7.20
2019-05-15T18:17:30.495Z,7.37
2019-05-15T18:20:04.886Z,6.90
2019-05-15T18:25:11.959Z,7.65
2019-05-15T18:27:47.916Z,7.45
2019-05-15T18:30:21.501Z,7.70
2019-05-15T18:32:58.786Z,7.35
2019-05-15T18:35:32.888Z,8.28
2019-05-15T18:38:08.550Z,8.30
2019-05-15T18:40:42.716Z,8.03
2019-05-15T18:43:17.992Z,8.45
2019-05-15T18:45:52.090Z,8.80
2019-05-15T18:48:26.122Z,8.38
2019-05-15T18:51:00.607Z,7.75
2019-05-15T18:53:35.082Z,7.47
2019-05-15T18:56:10.533Z,8.55
2019-05-15T18:58:45.099Z,8.55
2019-05-15T19:01:20.233Z,8.25
2019-05-15T19:03:54.241Z,8.30
2019-05-15T19:06:29.253Z,8.85
2019-05-15T19:09:03.286Z,7.87
2019-05-15T19:11:38.376Z,8.10
2019-05-15T19:14:12.027Z,7.58
2019-05-15T19:16:45.686Z,7.50
2019-05-15T19:19:19.841Z,7.87
2019-05-15T19:21:53.428Z,7.83
2019-05-15T19:24:27.245Z,7.50
2019-05-15T19:27:01.198Z,7.45
2019-05-15T19:29:37.839Z,7.55
2019-05-15T19:32:11.807Z,7.17
2019-05-15T19:34:45.755Z,7.42
2019-05-15T19:37:19.492Z,7.40
2019-05-15T19:39:52.972Z,7.80
2019-05-15T19:42:28.705Z,7.60
2019-05-15T19:45:03.324Z,8.08
2019-05-15T19:50:12.701Z,7.33
2019-05-15T19:55:21.042Z,7.80
2019-05-15T19:57:55.220Z,7.55
2019-05-15T20:00:30.107Z,7.95
2019-05-15T20:03:03.699Z,7.65
2019-05-15T20:05:38.478Z,7.80
2019-05-15T20:08:12.416Z,7.45
2019-05-15T20:10:47.867Z,7.25
2019-05-15T20:13:22.555Z,7.22
2019-05-15T20:18:28.939Z,7.22
2019-05-15T20:21:02.660Z,7.47
2019-05-15T20:23:38.101Z,7.97
2019-05-15T20:26:12.844Z,8.05
2019-05-15T20:31:19.863Z,8.05
2019-05-15T20:34:05.023Z,8.15
2019-05-15T20:36:29.889Z,7.65
2019-05-15T20:39:04.650Z,7.70
2019-05-15T20:44:12.347Z,7.87
2019-05-15T20:46:59.143Z,8.25
2019-05-15T20:52:07.452Z,8.10
2019-05-15T20:54:41.561Z,8.15
2019-05-15T20:57:15.140Z,7.97
2019-05-15T20:59:49.001Z,8.13
2019-05-15T21:02:22.974Z,8.03
2019-05-15T21:04:58.316Z,7.92
2019-05-15T21:07:38.658Z,8.23
2019-05-15T21:10:08.803Z,8.75
2019-05-15T21:12:43.724Z,8.73
2019-05-15T21:15:21.132Z,8.63
2019-05-15T21:17:58.592Z,8.70
2019-05-15T21:20:30.120Z,8.63
2019-05-15T21:23:04.711Z,8.50
2019-05-15T21:25:39.220Z,7.87
2019-05-15T21:28:15.217Z,8.08
2019-05-15T21:30:49.587Z,8.00
2019-05-15T21:33:24.041Z,7.92
2019-05-15T21:38:32.433Z,7.62
2019-05-15T21:41:07.859Z,7.83
2019-05-15T21:43:44.601Z,7.65
2019-05-15T21:46:18.876Z,7.97
2019-05-15T21:48:53.070Z,7.80
2019-05-15T21:51:28.132Z,8.03
2019-05-15T21:54:02.877Z,7.70
2019-05-15T21:56:38.592Z,7.83
2019-05-15T21:59:11.776Z,8.03
2019-05-15T22:01:48.282Z,7.80
2019-05-15T22:04:22.666Z,7.78
2019-05-15T22:06:58.468Z,7.67
2019-05-15T22:09:32.006Z,8.13
2019-05-15T22:12:06.015Z,7.53
2019-05-15T22:14:40.100Z,7.70
2019-05-15T22:17:13.949Z,8.38
2019-05-15T22:19:49.125Z,7.30
2019-05-15T22:22:24.048Z,8.15
2019-05-15T22:24:58.176Z,8.08
2019-05-15T22:27:32.452Z,8.60
2019-05-15T22:30:08.219Z,8.13
2019-05-15T22:32:43.447Z,7.97
2019-05-15T22:35:18.779Z,8.05
2019-05-15T22:37:53.346Z,8.58
2019-05-15T22:40:28.906Z,8.88
2019-05-15T22:43:03.249Z,8.38
2019-05-15T22:45:37.745Z,7.90
2019-05-15T22:48:11.273Z,8.70
2019-05-15T22:50:47.877Z,8.53
2019-05-15T22:53:21.749Z,8.13
2019-05-15T22:55:58.650Z,7.97
2019-05-15T22:58:31.625Z,8.75
2019-05-15T23:01:08.835Z,8.58
2019-05-15T23:03:41.699Z,9.00
2019-05-15T23:08:49.017Z,9.20
2019-05-15T23:11:24.632Z,9.30
2019-05-15T23:13:58.718Z,9.25
2019-05-15T23:16:32.637Z,8.70
2019-05-15T23:19:08.159Z,9.33
2019-05-15T23:21:41.803Z,9.45
2019-05-15T23:24:15.966Z,9.20
2019-05-15T23:26:49.743Z,8.83
2019-05-15T23:29:25.309Z,8.90
2019-05-15T23:31:59.253Z,9.20
2019-05-15T23:34:32.882Z,9.10
2019-05-15T23:37:08.115Z,9.30
2019-05-15T23:39:41.866Z,9.13
2019-05-15T23:42:18.305Z,9.45
2019-05-15T23:44:51.828Z,9.68
2019-05-15T23:47:28.490Z,10.38
2019-05-15T23:50:01.691Z,9.93
2019-05-15T23:52:37.903Z,10.50
2019-05-15T23:55:11.713Z,10.32
